Sheridan, WY (82801)

1:45 PM MDT on July 27, 2016 (GMT -0600)
South Sheridan | | Change Station

Elev 3770 ft 44.79 °N, 106.95 °W | Updated 6 seconds ago

Clear
Clear
86.2 °F
Feels Like 84 °F
N
4.0
Wind Variable Wind from NW
Gusts 7.4 mph

Today
High -- | Low -- °F
--% Chance of Precip.
Yesterday
High -- | Low -- °F
Precip. -- in
Pressure 30.02 in
Visibility 10.0 miles
Clouds Clear
Heat Index 84 °F
Dew Point 53 °F
Humidity 32%
Rainfall 0.00 in
Snow Depth Not available.
5:48 AM 8:39 PM
Last Quarter, 40% visible
METAR KSHR 271853Z AUTO 01007KT 330V050 10SM CLR 30/11 A3014 RMK AO2 SLP166 T03000111
Pressure 30.02 in
Visibility 10.0 miles
Clouds Clear
Heat Index 84 °F
Dew Point 53 °F
Humidity 32%
Rainfall 0.00 in
Snow Depth Not available.
5:48 AM 8:39 PM
Last Quarter, 40% visible
METAR KSHR 271853Z AUTO 01007KT 330V050 10SM CLR 30/11 A3014 RMK AO2 SLP166 T03000111

10-Day Weather Forecast

Almanac

Astronomy

Jul. 27, 2016 Rise Set
Actual Time
Civil Twilight
Nautical Twilight
Astronomical Twilight
Moon
Length of Visible Light
Length of Day
Tomorrow will be .
, % of the Moon is Illuminated

Today's Extremes

State Highs State Lows

Community

WunderPhotos

Upload Photos

1,927,920 photos uploaded!

WunderBlog® & News

Nearby

Air Quality

  Air Quality AQ Index Pollutant
Not available.

Snow Depth

Station Depth Elevation

Earthquake Activity

City Distance Mag. Time & Date
Minimum magnitude displayed is 2.5.

Coastal Water Temperatures

Place Temperature

Stations

Nearby Weather Stations

Station Location Temp. Windchill Dew Point Humidity Wind Precip. Elev Updated Type
                   

Watches & Warnings

There are currently no watches in effect.